Zapata, TX

6:31 AM CDT on October 20, 2014 (GMT -0500)
Falfurrias | Change Station
CLOSE
Current Station
Airport
Location: Falfurrias,
Elevation: 112 ft
Nearby Weather Stations

Elev 112 ft 27.21 °N, 98.12 °W | Updated 16 minutes ago

Overcast
Overcast
71 °F
Feels Like 71 °F
N
5
Wind Variable Wind from North

Today
High -- | Low -- °F
--% Chance of Precip.
Yesterday
High -- | Low -- °F
Precip. -- in
7:39 AM 7:03 PM
Waning Crescent, 11% visible
Pressure 29.93 in
Visibility 10.0 miles
Clouds Scattered Clouds 3100 ft
Overcast 6000 ft
Dew Point 68 °F
Humidity 91%
Rainfall 0.00 in
Snow Depth Not available.
UV 0 out of 12
Pollen 7.10 out of 12
Air Quality Not available.
Flu Activity Sporadic
METAR KBKS 201115Z AUTO 01004KT 10SM SCT031 OVC060 22/20 A2993 RMK AO1 T02150200

More Conditions Fewer Conditions

Pressure 29.93 in
Visibility 10.0 miles
Clouds Scattered Clouds 3100 ft
Overcast 6000 ft
Dew Point 68 °F
Humidity 91%
Rainfall 0.00 in
Snow Depth Not available.
UV 0 out of 12
Pollen 7.10 out of 12
Air Quality Not available.
Flu Activity Sporadic
METAR KBKS 201115Z AUTO 01004KT 10SM SCT031 OVC060 22/20 A2993 RMK AO1 T02150200

More Conditions Fewer Conditions

10-Day Weather Forecast

Almanac

Astronomy

Oct. 20, 2014 Rise Set
Actual Time 7:39 AM CDT 7:03 PM CDT
Civil Twilight 7:15 AM CDT 7:27 PM CDT
Nautical Twilight 6:48 AM CDT 7:54 PM CDT
Astronomical Twilight 6:21 AM CDT 8:21 PM CDT
Moon 4:46 AM CDT 5:12 PM CDT
Length of Visible Light 12h 11m
Length of Day
11h 24m
Waning Crescent, 11% of the Moon is Illuminated
Today
Waning Crescent
Oct 23
New
Oct 30
First Quarter
Nov 6
Full
Nov 14
Last Quarter

Today's Extremes

State Highs State Lows

Community

WunderPhotos

Upload Photos

1,763,340 photos uploaded!

Nearby

Snow Depth

Station Depth Elevation
No new snow has been reported.

Earthquake Activity

City Distance Mag. Time & Date
No recent earthquake activity has been reported nearby.
Minimum magnitude displayed is 2.5.

Coastal Water Temperatures

Place Temperature
No Stations Reporting

Nearby Weather Stations